Time;durP1;ratioP1;P1;durP2;ratioP2;P2;SDS_P1;SDS_P2;PMS_P1;PMS_P2;Temp;Humidity;BMP_temperature;BMP_pressure;BME280_temperature;BME280_humidity;BME280_pressure;Samples;Min_cycle;Max_cycle;Signal;HPM_P1;HPM_P2
2023/09/16 00:00:33;;;;;;;;;;;13.40;76.00;;;;;;4993666;28;19917;-75
2023/09/16 00:02:59;;;;;;;;;;;13.40;75.90;;;;;;5028060;28;19948;-75
2023/09/16 00:05:25;;;;;;;;;;;13.40;75.90;;;;;;5009856;28;19952;-75
2023/09/16 00:07:50;;;;;;;;;;;13.40;75.90;;;;;;5010092;28;20403;-76
2023/09/16 00:10:16;;;;;;;;;;;13.40;75.90;;;;;;4993512;28;20293;-75
2023/09/16 00:12:42;;;;;;;;;;;13.30;75.90;;;;;;4993628;28;19964;-75
2023/09/16 00:15:07;;;;;;;;;;;13.30;75.90;;;;;;5009706;28;19913;-75
2023/09/16 00:17:33;;;;;;;;;;;13.30;76.00;;;;;;5009962;28;20327;-76
2023/09/16 00:19:59;;;;;;;;;;;13.30;76.00;;;;;;5027445;28;19936;-75
2023/09/16 00:22:24;;;;;;;;;;;13.30;76.00;;;;;;5009823;28;19933;-75
2023/09/16 00:24:52;;;;;;;;;;;13.40;76.10;;;;;;5026156;28;19936;-75
2023/09/16 00:27:18;;;;;;;;;;;13.40;75.90;;;;;;5026524;28;20294;-75
2023/09/16 00:29:43;;;;;;;;;;;13.40;75.80;;;;;;5027516;28;19918;-76
2023/09/16 00:32:09;;;;;;;;;;;13.40;75.80;;;;;;5009765;28;20056;-76
2023/09/16 00:34:35;;;;;;;;;;;13.30;75.80;;;;;;5009808;28;19929;-76
2023/09/16 00:37:01;;;;;;;;;;;13.30;75.80;;;;;;5026232;28;19911;-76
2023/09/16 00:39:26;;;;;;;;;;;13.30;75.90;;;;;;4993564;28;19917;-76
2023/09/16 00:41:52;;;;;;;;;;;13.20;75.80;;;;;;5009601;28;20059;-76
2023/09/16 00:44:17;;;;;;;;;;;13.20;75.90;;;;;;5009493;28;20360;-75
2023/09/16 00:46:43;;;;;;;;;;;13.20;75.90;;;;;;5009636;28;19917;-76
2023/09/16 00:49:09;;;;;;;;;;;13.20;76.00;;;;;;5027474;28;19921;-79
2023/09/16 00:51:34;;;;;;;;;;;13.20;76.00;;;;;;4993344;28;19945;-78
2023/09/16 00:54:00;;;;;;;;;;;13.10;76.00;;;;;;5009733;28;20375;-75
2023/09/16 00:56:27;;;;;;;;;;;13.10;76.00;;;;;;4994553;28;20281;-76
2023/09/16 00:58:57;;;;;;;;;;;13.10;76.00;;;;;;5030800;28;20353;-75
2023/09/16 01:01:24;;;;;;;;;;;13.10;76.10;;;;;;5012973;28;19916;-75
2023/09/16 01:03:50;;;;;;;;;;;13.00;76.10;;;;;;5013008;28;19992;-75
2023/09/16 01:06:19;;;;;;;;;;;13.00;76.20;;;;;;5012892;28;20009;-75
2023/09/16 01:08:46;;;;;;;;;;;13.10;76.20;;;;;;5030757;28;20320;-75
2023/09/16 01:11:12;;;;;;;;;;;13.10;76.20;;;;;;5012750;28;19920;-75
2023/09/16 01:13:38;;;;;;;;;;;13.10;76.10;;;;;;4996446;28;19913;-74
2023/09/16 01:16:16;;;;;;;;;;;13.10;76.00;;;;;;5029166;28;19955;-75
2023/09/16 01:18:46;;;;;;;;;;;13.10;76.00;;;;;;5030632;28;19916;-76
2023/09/16 01:21:13;;;;;;;;;;;13.10;76.00;;;;;;5030825;28;19928;-75
2023/09/16 01:23:38;;;;;;;;;;;13.10;76.00;;;;;;5030416;28;19909;-75
2023/09/16 01:26:04;;;;;;;;;;;13.10;76.00;;;;;;5012587;28;19917;-75
2023/09/16 01:28:30;;;;;;;;;;;13.10;76.00;;;;;;4996322;28;19913;-75
2023/09/16 01:30:57;;;;;;;;;;;13.10;76.00;;;;;;5012469;28;19913;-75
2023/09/16 01:33:25;;;;;;;;;;;13.10;76.00;;;;;;5012500;28;20335;-75
2023/09/16 01:35:53;;;;;;;;;;;13.10;76.00;;;;;;5012453;28;19935;-75
2023/09/16 01:38:21;;;;;;;;;;;13.10;76.00;;;;;;5012532;28;20378;-75
2023/09/16 01:40:48;;;;;;;;;;;13.10;76.00;;;;;;5028862;28;19913;-75
2023/09/16 01:43:15;;;;;;;;;;;13.10;76.10;;;;;;5029019;28;19968;-75
2023/09/16 01:45:44;;;;;;;;;;;13.10;76.00;;;;;;5029977;28;19913;-75
2023/09/16 01:48:11;;;;;;;;;;;13.10;76.00;;;;;;5012156;28;19909;-75
2023/09/16 01:50:37;;;;;;;;;;;13.20;76.10;;;;;;5029846;28;19920;-75
2023/09/16 01:53:02;;;;;;;;;;;13.20;76.00;;;;;;5012328;28;19982;-75
2023/09/16 01:55:30;;;;;;;;;;;13.20;75.90;;;;;;5012186;28;20412;-75
2023/09/16 01:57:57;;;;;;;;;;;13.20;75.90;;;;;;5028702;28;20058;-75
2023/09/16 02:00:23;;;;;;;;;;;13.20;75.80;;;;;;5011895;28;19928;-75
2023/09/16 02:02:48;;;;;;;;;;;13.30;75.80;;;;;;5012141;28;20008;-75
2023/09/16 02:05:14;;;;;;;;;;;13.30;75.70;;;;;;5011826;28;19921;-76
2023/09/16 02:07:40;;;;;;;;;;;13.30;75.80;;;;;;5028336;28;19920;-75
2023/09/16 02:10:06;;;;;;;;;;;13.20;75.80;;;;;;5029434;28;19999;-75
2023/09/16 02:12:33;;;;;;;;;;;13.20;75.90;;;;;;5029512;28;19917;-75
2023/09/16 02:14:58;;;;;;;;;;;13.20;75.90;;;;;;5029269;28;20452;-75
2023/09/16 02:17:25;;;;;;;;;;;13.20;75.90;;;;;;5029408;28;20003;-75
2023/09/16 02:19:53;;;;;;;;;;;13.20;75.80;;;;;;4995143;28;19923;-75
2023/09/16 02:22:19;;;;;;;;;;;13.10;75.90;;;;;;4995078;28;20015;-75
2023/09/16 02:24:45;;;;;;;;;;;13.10;75.90;;;;;;5011549;28;20000;-76
2023/09/16 02:27:12;;;;;;;;;;;13.10;75.90;;;;;;5029203;28;19917;-76
2023/09/16 02:29:37;;;;;;;;;;;13.10;75.80;;;;;;5027894;28;19909;-76
2023/09/16 02:32:03;;;;;;;;;;;13.10;75.80;;;;;;4995069;28;20039;-76
2023/09/16 02:34:31;;;;;;;;;;;13.10;75.80;;;;;;5028945;28;20407;-75
2023/09/16 02:36:58;;;;;;;;;;;13.10;75.80;;;;;;5011162;28;19913;-75
2023/09/16 02:39:23;;;;;;;;;;;13.10;75.90;;;;;;4994839;28;20020;-75
2023/09/16 02:41:49;;;;;;;;;;;13.10;75.90;;;;;;5029076;28;20004;-75
2023/09/16 02:44:14;;;;;;;;;;;13.10;75.90;;;;;;5011107;28;20251;-74
2023/09/16 02:46:40;;;;;;;;;;;13.10;75.90;;;;;;5028601;28;20003;-75
2023/09/16 02:49:06;;;;;;;;;;;13.10;75.80;;;;;;5010954;28;19920;-75
2023/09/16 02:51:32;;;;;;;;;;;13.00;75.80;;;;;;5011146;28;19921;-74
2023/09/16 02:53:58;;;;;;;;;;;13.00;76.00;;;;;;5011008;28;19956;-75
2023/09/16 02:56:24;;;;;;;;;;;13.10;76.10;;;;;;5028645;28;19948;-75
2023/09/16 02:58:49;;;;;;;;;;;13.10;76.00;;;;;;5028632;28;19925;-75
2023/09/16 03:01:15;;;;;;;;;;;13.10;76.00;;;;;;5010980;28;20439;-74
2023/09/16 03:03:40;;;;;;;;;;;13.10;76.00;;;;;;5010841;28;19921;-75
2023/09/16 03:06:06;;;;;;;;;;;13.10;75.90;;;;;;5028504;28;19917;-75
2023/09/16 03:08:31;;;;;;;;;;;13.10;76.00;;;;;;5010590;28;19927;-75
2023/09/16 03:11:02;;;;;;;;;;;13.10;76.00;;;;;;5010649;28;19916;-74
2023/09/16 03:13:27;;;;;;;;;;;13.20;76.10;;;;;;5028415;28;20261;-74
2023/09/16 03:16:11;;;;;;;;;;;13.20;76.10;;;;;;4994218;28;19921;-75
2023/09/16 03:18:36;;;;;;;;;;;13.30;76.10;;;;;;5010223;28;20361;-74
2023/09/16 03:21:02;;;;;;;;;;;13.30;76.10;;;;;;5026724;28;19931;-75
2023/09/16 03:23:28;;;;;;;;;;;13.30;76.00;;;;;;4994152;28;19940;-75
2023/09/16 03:25:53;;;;;;;;;;;13.30;76.00;;;;;;5028179;28;19953;-75
2023/09/16 03:28:19;;;;;;;;;;;13.30;75.90;;;;;;5028209;28;19909;-74
2023/09/16 03:30:44;;;;;;;;;;;13.40;76.00;;;;;;5028141;28;19918;-75
2023/09/16 03:33:10;;;;;;;;;;;13.40;76.00;;;;;;4994100;28;19920;-75
2023/09/16 03:35:36;;;;;;;;;;;13.40;76.50;;;;;;5026823;28;19913;-75
2023/09/16 03:38:02;;;;;;;;;;;13.40;76.00;;;;;;5010495;28;19913;-75
2023/09/16 03:40:28;;;;;;;;;;;13.40;75.90;;;;;;5028017;28;20004;-75
2023/09/16 03:42:55;;;;;;;;;;;13.40;75.90;;;;;;5010346;28;19913;-75
2023/09/16 03:45:20;;;;;;;;;;;13.40;76.00;;;;;;5010074;28;19913;-75
2023/09/16 03:47:46;;;;;;;;;;;13.40;76.00;;;;;;5026596;28;19933;-75
2023/09/16 03:50:11;;;;;;;;;;;13.30;76.00;;;;;;5010123;28;19921;-75
2023/09/16 03:52:37;;;;;;;;;;;13.30;76.10;;;;;;4993614;28;20002;-75
2023/09/16 03:55:03;;;;;;;;;;;13.30;76.00;;;;;;5010120;28;19976;-76
2023/09/16 03:57:28;;;;;;;;;;;13.30;76.00;;;;;;5027861;28;19913;-75
2023/09/16 03:59:54;;;;;;;;;;;13.30;76.00;;;;;;5027707;28;20337;-75
2023/09/16 04:02:19;;;;;;;;;;;13.30;76.10;;;;;;4993690;28;20289;-75
2023/09/16 04:04:45;;;;;;;;;;;13.30;76.20;;;;;;5010170;28;20272;-76
2023/09/16 04:07:10;;;;;;;;;;;13.30;76.20;;;;;;5026492;28;19914;-76
2023/09/16 04:09:36;;;;;;;;;;;13.30;76.20;;;;;;5026278;28;19917;-75
2023/09/16 04:12:02;;;;;;;;;;;13.30;76.20;;;;;;5027622;28;20026;-75
2023/09/16 04:14:28;;;;;;;;;;;13.30;76.20;;;;;;5028086;28;19973;-75
2023/09/16 04:16:53;;;;;;;;;;;13.30;76.10;;;;;;5027515;28;19917;-75
2023/09/16 04:19:19;;;;;;;;;;;13.30;76.00;;;;;;5009638;28;19909;-75
2023/09/16 04:21:46;;;;;;;;;;;13.30;76.10;;;;;;5026104;28;20136;-75
2023/09/16 04:24:12;;;;;;;;;;;13.30;76.20;;;;;;5027647;28;19922;-75
2023/09/16 04:26:37;;;;;;;;;;;13.30;76.20;;;;;;5009727;28;19960;-75
2023/09/16 04:29:03;;;;;;;;;;;13.30;76.20;;;;;;5027607;28;20258;-75
2023/09/16 04:31:30;;;;;;;;;;;13.30;76.20;;;;;;4995442;28;20415;-75
2023/09/16 04:33:55;;;;;;;;;;;13.30;76.20;;;;;;4997561;28;20349;-75
2023/09/16 04:36:22;;;;;;;;;;;13.30;76.20;;;;;;5031287;28;20017;-75
2023/09/16 04:38:48;;;;;;;;;;;13.20;76.10;;;;;;4997314;28;20296;-75
2023/09/16 04:41:14;;;;;;;;;;;13.20;76.30;;;;;;5031161;28;19917;-75
2023/09/16 04:43:40;;;;;;;;;;;13.20;76.30;;;;;;5013262;28;19932;-76
2023/09/16 04:46:06;;;;;;;;;;;13.20;76.30;;;;;;5013348;28;19956;-75
2023/09/16 04:48:32;;;;;;;;;;;13.20;76.20;;;;;;5029741;28;19969;-75
2023/09/16 04:50:57;;;;;;;;;;;13.20;76.10;;;;;;5013411;28;19913;-75
2023/09/16 04:53:23;;;;;;;;;;;13.30;76.20;;;;;;5013131;28;19913;-75
2023/09/16 04:55:48;;;;;;;;;;;13.20;76.10;;;;;;5013215;28;19910;-75
2023/09/16 04:58:14;;;;;;;;;;;13.20;76.20;;;;;;4996788;28;19935;-75
2023/09/16 05:00:39;;;;;;;;;;;13.20;76.20;;;;;;5030700;28;20369;-75
2023/09/16 05:03:05;;;;;;;;;;;13.20;76.70;;;;;;5012989;28;19913;-76
2023/09/16 05:05:32;;;;;;;;;;;13.20;76.30;;;;;;4996735;28;19913;-76
2023/09/16 05:07:57;;;;;;;;;;;13.20;76.20;;;;;;5013073;28;20368;-76
2023/09/16 05:10:23;;;;;;;;;;;13.20;76.20;;;;;;5029550;28;19914;-76
2023/09/16 05:12:48;;;;;;;;;;;13.20;76.30;;;;;;5030710;28;20349;-75
2023/09/16 05:15:14;;;;;;;;;;;13.30;76.20;;;;;;5012952;28;19913;-75
2023/09/16 05:17:40;;;;;;;;;;;13.30;76.20;;;;;;5031008;28;19917;-75
2023/09/16 05:20:06;;;;;;;;;;;13.20;76.20;;;;;;5012700;28;19923;-75
2023/09/16 05:22:31;;;;;;;;;;;13.20;76.10;;;;;;5030239;28;19921;-75
2023/09/16 05:24:57;;;;;;;;;;;13.30;76.20;;;;;;5030203;28;20261;-75
2023/09/16 05:27:23;;;;;;;;;;;13.20;76.20;;;;;;5030305;28;19913;-76
2023/09/16 05:29:52;;;;;;;;;;;13.20;76.20;;;;;;5030083;28;20421;-76
2023/09/16 05:32:18;;;;;;;;;;;13.20;76.20;;;;;;5030062;28;20329;-76
2023/09/16 05:34:44;;;;;;;;;;;13.30;76.20;;;;;;5012265;28;19924;-76
2023/09/16 05:37:09;;;;;;;;;;;13.30;76.20;;;;;;5012217;28;19913;-75
2023/09/16 05:39:35;;;;;;;;;;;13.30;76.20;;;;;;4995687;28;19928;-76
2023/09/16 05:42:00;;;;;;;;;;;13.20;76.10;;;;;;5011634;28;19917;-76
2023/09/16 05:44:26;;;;;;;;;;;13.20;76.20;;;;;;4996031;28;20361;-75
2023/09/16 05:46:52;;;;;;;;;;;13.20;76.20;;;;;;5029972;28;20015;-76
2023/09/16 05:49:18;;;;;;;;;;;13.10;76.20;;;;;;5012341;28;19964;-75
2023/09/16 05:51:44;;;;;;;;;;;13.10;76.30;;;;;;5030204;28;19920;-76
2023/09/16 05:54:10;;;;;;;;;;;13.10;76.30;;;;;;4996092;28;20324;-76
2023/09/16 05:56:38;;;;;;;;;;;13.00;76.20;;;;;;4995831;28;20031;-76
2023/09/16 05:59:04;;;;;;;;;;;13.00;76.30;;;;;;5011886;28;20020;-75
2023/09/16 06:01:29;;;;;;;;;;;13.00;76.30;;;;;;5011937;28;20003;-75
2023/09/16 06:03:55;;;;;;;;;;;12.90;76.30;;;;;;4995664;28;19913;-75
2023/09/16 06:06:21;;;;;;;;;;;12.90;76.70;;;;;;5029608;28;20353;-76
2023/09/16 06:08:46;;;;;;;;;;;12.80;76.20;;;;;;5029628;28;19920;-76
2023/09/16 06:11:12;;;;;;;;;;;12.70;76.40;;;;;;5029440;28;20288;-76
2023/09/16 06:13:38;;;;;;;;;;;12.70;76.50;;;;;;4995299;28;19933;-76
2023/09/16 06:16:03;;;;;;;;;;;12.70;76.40;;;;;;5011667;28;19913;-76
2023/09/16 06:18:29;;;;;;;;;;;12.70;76.30;;;;;;5011769;28;20384;-75
2023/09/16 06:20:55;;;;;;;;;;;12.70;76.30;;;;;;5011274;28;19928;-75
2023/09/16 06:23:20;;;;;;;;;;;12.70;76.30;;;;;;4995054;28;19923;-76
2023/09/16 06:25:46;;;;;;;;;;;12.70;76.20;;;;;;5027744;28;19972;-76
2023/09/16 06:28:12;;;;;;;;;;;12.70;76.30;;;;;;5028460;28;19944;-76
2023/09/16 06:30:37;;;;;;;;;;;12.70;76.20;;;;;;4996181;28;19944;-76
2023/09/16 06:33:04;;;;;;;;;;;12.70;76.30;;;;;;5011691;28;19913;-76
2023/09/16 06:35:29;;;;;;;;;;;12.70;76.40;;;;;;5029066;28;20022;-75
2023/09/16 06:37:55;;;;;;;;;;;12.70;76.30;;;;;;4994798;28;19956;-75
2023/09/16 06:40:20;;;;;;;;;;;12.70;76.30;;;;;;4994732;28;20345;-75
2023/09/16 06:42:46;;;;;;;;;;;12.70;76.30;;;;;;5011081;28;19913;-75
2023/09/16 06:45:12;;;;;;;;;;;12.70;76.30;;;;;;5011101;28;20336;-75
2023/09/16 06:47:37;;;;;;;;;;;12.70;76.40;;;;;;5011160;28;19919;-76
2023/09/16 06:50:04;;;;;;;;;;;12.80;76.50;;;;;;4994607;28;19963;-76
2023/09/16 06:52:29;;;;;;;;;;;12.80;76.40;;;;;;5010819;28;19931;-76
2023/09/16 06:54:55;;;;;;;;;;;12.80;76.20;;;;;;4993933;28;19913;-76
2023/09/16 06:57:21;;;;;;;;;;;12.80;76.20;;;;;;5010814;28;19913;-75
2023/09/16 06:59:47;;;;;;;;;;;12.80;76.20;;;;;;5010720;28;19917;-75
2023/09/16 07:02:13;;;;;;;;;;;12.90;76.30;;;;;;5010886;28;19917;-75
2023/09/16 07:04:40;;;;;;;;;;;12.80;76.20;;;;;;5028445;28;19996;-75
2023/09/16 07:07:08;;;;;;;;;;;12.80;76.30;;;;;;5010999;28;19913;-75
2023/09/16 07:09:34;;;;;;;;;;;12.90;76.40;;;;;;5028340;28;19917;-76
2023/09/16 07:12:00;;;;;;;;;;;12.90;76.30;;;;;;5028591;28;19917;-75
2023/09/16 07:14:25;;;;;;;;;;;12.90;76.20;;;;;;5026779;28;20003;-75
2023/09/16 07:16:51;;;;;;;;;;;12.90;76.30;;;;;;5010295;28;20303;-75
2023/09/16 07:19:17;;;;;;;;;;;12.90;76.40;;;;;;5010606;28;19917;-75
2023/09/16 07:21:43;;;;;;;;;;;12.90;76.40;;;;;;5010403;28;20066;-75
2023/09/16 07:24:10;;;;;;;;;;;13.00;76.40;;;;;;5010098;28;21616;-75
2023/09/16 07:26:36;;;;;;;;;;;13.00;76.30;;;;;;5026641;28;19913;-76
2023/09/16 07:29:01;;;;;;;;;;;12.90;76.30;;;;;;5010066;28;20385;-76
2023/09/16 07:31:28;;;;;;;;;;;13.00;76.40;;;;;;5010506;28;20312;-75
2023/09/16 07:33:53;;;;;;;;;;;12.90;76.40;;;;;;5010368;28;19920;-75
2023/09/16 07:36:19;;;;;;;;;;;13.00;76.40;;;;;;4993861;28;19914;-75
2023/09/16 07:38:44;;;;;;;;;;;13.00;76.40;;;;;;4993908;28;19917;-76
2023/09/16 07:41:10;;;;;;;;;;;13.10;76.30;;;;;;5028074;28;20348;-76
2023/09/16 07:43:36;;;;;;;;;;;13.10;76.20;;;;;;5027845;28;19913;-75
2023/09/16 07:46:02;;;;;;;;;;;13.10;76.30;;;;;;5026473;28;19913;-68
2023/09/16 07:48:27;;;;;;;;;;;13.20;76.30;;;;;;5027656;28;20357;-76
2023/09/16 07:50:54;;;;;;;;;;;13.20;76.80;;;;;;5027646;28;19936;-76
2023/09/16 07:53:20;;;;;;;;;;;13.30;76.30;;;;;;5026164;28;20416;-75
2023/09/16 07:55:46;;;;;;;;;;;13.30;76.20;;;;;;5009441;28;19910;-76
2023/09/16 07:58:11;;;;;;;;;;;13.40;76.30;;;;;;5009973;28;19924;-76
2023/09/16 08:00:37;;;;;;;;;;;13.40;76.30;;;;;;4993498;28;20381;-76
2023/09/16 08:03:02;;;;;;;;;;;13.40;76.30;;;;;;5009808;28;20288;-76
2023/09/16 08:05:28;;;;;;;;;;;13.50;76.40;;;;;;5010886;28;19920;-76
2023/09/16 08:07:53;;;;;;;;;;;13.60;76.40;;;;;;5014054;28;20031;-76
2023/09/16 08:10:19;;;;;;;;;;;13.60;76.30;;;;;;5013862;28;19928;-76
2023/09/16 08:12:45;;;;;;;;;;;13.70;76.30;;;;;;5013903;28;19919;-76
2023/09/16 08:15:10;;;;;;;;;;;13.70;76.40;;;;;;4997436;28;19991;-75
2023/09/16 08:17:39;;;;;;;;;;;13.70;76.30;;;;;;4997384;28;19956;-76
2023/09/16 08:20:05;;;;;;;;;;;13.80;76.30;;;;;;5014371;28;19917;-75
2023/09/16 08:22:31;;;;;;;;;;;13.80;76.30;;;;;;5031214;28;19964;-76
2023/09/16 08:24:56;;;;;;;;;;;13.80;76.30;;;;;;4996745;28;19975;-76
2023/09/16 08:27:22;;;;;;;;;;;13.80;76.20;;;;;;5013303;28;19917;-76
2023/09/16 08:29:49;;;;;;;;;;;13.80;76.30;;;;;;5030112;28;19909;-76
2023/09/16 08:32:15;;;;;;;;;;;13.80;76.30;;;;;;5013348;28;20349;-76
2023/09/16 08:34:41;;;;;;;;;;;13.70;76.40;;;;;;5031265;28;19920;-76
2023/09/16 08:37:06;;;;;;;;;;;13.70;76.50;;;;;;5030966;28;19971;-76
2023/09/16 08:39:32;;;;;;;;;;;13.80;76.50;;;;;;5030867;28;19936;-76
2023/09/16 08:41:58;;;;;;;;;;;13.80;76.40;;;;;;5013414;28;19916;-76
2023/09/16 08:44:24;;;;;;;;;;;13.90;76.50;;;;;;5013078;28;20012;-76
2023/09/16 08:46:53;;;;;;;;;;;13.90;76.50;;;;;;5030480;28;19909;-77
2023/09/16 08:49:21;;;;;;;;;;;13.90;76.30;;;;;;5032231;28;19958;-76
2023/09/16 08:51:47;;;;;;;;;;;14.00;76.40;;;;;;5014225;28;19915;-75
2023/09/16 08:54:15;;;;;;;;;;;14.00;76.40;;;;;;5031766;28;19970;-76
2023/09/16 08:56:42;;;;;;;;;;;14.10;76.40;;;;;;5032123;28;19916;-75
2023/09/16 08:59:08;;;;;;;;;;;14.20;76.40;;;;;;5014851;28;20364;-75
2023/09/16 09:01:34;;;;;;;;;;;14.20;76.40;;;;;;5007415;28;20003;-76
2023/09/16 09:03:59;;;;;;;;;;;14.20;76.40;;;;;;5051761;28;20372;-75
2023/09/16 09:06:26;;;;;;;;;;;14.30;76.40;;;;;;5051459;28;19990;-75
2023/09/16 09:08:52;;;;;;;;;;;14.30;76.40;;;;;;5051431;28;19912;-75
2023/09/16 09:11:19;;;;;;;;;;;14.30;76.40;;;;;;5052870;28;20413;-83
2023/09/16 09:13:45;;;;;;;;;;;14.30;76.40;;;;;;5035399;28;19954;-77
2023/09/16 09:16:14;;;;;;;;;;;14.30;76.40;;;;;;5054216;28;19946;-79
2023/09/16 09:18:40;;;;;;;;;;;14.30;76.40;;;;;;5054153;28;19995;-78
2023/09/16 09:21:05;;;;;;;;;;;14.30;76.30;;;;;;5053695;28;20019;-78
2023/09/16 09:23:31;;;;;;;;;;;14.20;76.30;;;;;;5044202;28;19983;-77
2023/09/16 09:25:57;;;;;;;;;;;14.20;76.40;;;;;;5046550;28;19965;-77
2023/09/16 09:28:23;;;;;;;;;;;14.10;76.40;;;;;;5067751;28;19916;-77
2023/09/16 09:30:49;;;;;;;;;;;14.10;76.60;;;;;;5042152;28;19916;-76
2023/09/16 09:33:18;;;;;;;;;;;14.10;76.60;;;;;;5051358;28;20377;-76
2023/09/16 09:35:44;;;;;;;;;;;14.10;76.60;;;;;;5043368;28;19909;-77
2023/09/16 09:38:09;;;;;;;;;;;14.20;76.70;;;;;;5047003;28;20000;-75
2023/09/16 09:40:35;;;;;;;;;;;14.20;76.70;;;;;;5024503;28;20259;-76
2023/09/16 09:43:00;;;;;;;;;;;14.30;76.60;;;;;;5054531;28;19947;-77
2023/09/16 09:45:27;;;;;;;;;;;14.30;76.50;;;;;;5070472;28;19912;-76
2023/09/16 09:47:53;;;;;;;;;;;14.30;76.30;;;;;;5053441;28;19929;-78
2023/09/16 09:50:20;;;;;;;;;;;14.30;76.30;;;;;;5055608;28;19909;-78
2023/09/16 09:52:46;;;;;;;;;;;14.20;76.40;;;;;;5036273;28;19909;-77
2023/09/16 09:55:12;;;;;;;;;;;14.20;76.50;;;;;;5051424;28;19947;-77
2023/09/16 09:57:38;;;;;;;;;;;14.20;76.60;;;;;;5033087;28;20327;-76
2023/09/16 10:00:05;;;;;;;;;;;14.20;76.60;;;;;;5036531;28;20035;-73
2023/09/16 10:02:31;;;;;;;;;;;14.20;76.70;;;;;;5054620;28;19962;-74
2023/09/16 10:05:01;;;;;;;;;;;14.20;76.70;;;;;;5070657;28;19912;-74
2023/09/16 10:07:27;;;;;;;;;;;14.30;76.70;;;;;;5069882;28;19909;-77
2023/09/16 10:09:53;;;;;;;;;;;14.30;76.70;;;;;;5050631;28;20098;-76
2023/09/16 10:12:19;;;;;;;;;;;14.40;76.60;;;;;;5050997;28;20329;-76
2023/09/16 10:14:45;;;;;;;;;;;14.40;76.70;;;;;;5050875;28;19956;-76
2023/09/16 10:17:11;;;;;;;;;;;14.40;76.70;;;;;;5032931;28;19909;-77
2023/09/16 10:19:37;;;;;;;;;;;14.50;76.70;;;;;;5033010;28;19913;-73
2023/09/16 10:22:02;;;;;;;;;;;14.50;76.70;;;;;;5049470;28;20388;-75
2023/09/16 10:24:28;;;;;;;;;;;14.50;76.70;;;;;;5032233;28;19917;-75
2023/09/16 10:26:54;;;;;;;;;;;14.50;76.70;;;;;;5031606;28;20402;-76
2023/09/16 10:29:20;;;;;;;;;;;14.60;76.80;;;;;;5049369;28;20277;-76
2023/09/16 10:31:47;;;;;;;;;;;14.70;76.90;;;;;;5015699;28;19912;-74
2023/09/16 10:34:13;;;;;;;;;;;14.70;76.70;;;;;;5032280;28;20250;-76
2023/09/16 10:36:38;;;;;;;;;;;14.70;76.70;;;;;;5050170;28;19913;-75
2023/09/16 10:39:05;;;;;;;;;;;14.70;77.10;;;;;;5050243;28;19936;-76
2023/09/16 10:41:31;;;;;;;;;;;14.70;76.70;;;;;;5032470;28;19913;-74
2023/09/16 10:44:01;;;;;;;;;;;14.70;76.80;;;;;;5031686;28;19946;-75
2023/09/16 10:46:28;;;;;;;;;;;14.70;76.60;;;;;;5032066;28;19916;-75
2023/09/16 10:48:54;;;;;;;;;;;14.70;76.60;;;;;;5050188;28;19931;-76
2023/09/16 10:51:22;;;;;;;;;;;14.80;76.60;;;;;;5032059;28;20360;-78
2023/09/16 10:53:50;;;;;;;;;;;14.80;76.60;;;;;;5031882;28;19908;-76
2023/09/16 10:56:18;;;;;;;;;;;14.80;76.60;;;;;;5049121;28;20470;-75
2023/09/16 10:58:50;;;;;;;;;;;14.70;76.60;;;;;;5028371;28;19921;-73
2023/09/16 11:01:18;;;;;;;;;;;14.70;76.60;;;;;;5048410;28;20356;-77
2023/09/16 11:03:49;;;;;;;;;;;14.80;76.60;;;;;;5036137;28;20272;-75
2023/09/16 11:06:15;;;;;;;;;;;14.70;76.60;;;;;;5055252;28;19970;-74
2023/09/16 11:08:40;;;;;;;;;;;14.70;76.60;;;;;;5039190;28;20331;-75
2023/09/16 11:11:06;;;;;;;;;;;14.70;76.70;;;;;;5057520;28;19965;-74
2023/09/16 11:13:32;;;;;;;;;;;14.70;76.70;;;;;;5026115;28;20062;-75
2023/09/16 11:15:58;;;;;;;;;;;14.70;76.60;;;;;;5028718;28;19917;-74
2023/09/16 11:18:24;;;;;;;;;;;14.70;76.60;;;;;;5011121;28;19913;-74
2023/09/16 11:20:50;;;;;;;;;;;14.80;76.70;;;;;;5022434;28;19944;-74
2023/09/16 11:23:16;;;;;;;;;;;14.70;76.60;;;;;;5026650;28;20630;-74
2023/09/16 11:25:42;;;;;;;;;;;14.70;76.70;;;;;;5030495;28;19945;-75
2023/09/16 11:28:08;;;;;;;;;;;14.70;76.70;;;;;;5048123;28;19918;-76
2023/09/16 11:30:35;;;;;;;;;;;14.70;76.70;;;;;;5048595;28;19909;-74
2023/09/16 11:33:01;;;;;;;;;;;14.70;76.70;;;;;;5047140;28;19912;-74
2023/09/16 11:35:27;;;;;;;;;;;14.80;76.70;;;;;;5054535;28;19992;-74
2023/09/16 11:37:56;;;;;;;;;;;14.80;76.60;;;;;;5030708;28;20450;-74
2023/09/16 11:40:25;;;;;;;;;;;14.80;76.60;;;;;;5047628;28;19916;-74
2023/09/16 11:42:51;;;;;;;;;;;14.70;76.60;;;;;;5017305;28;19975;-74
2023/09/16 11:45:17;;;;;;;;;;;14.70;76.70;;;;;;5026080;28;20380;-74
2023/09/16 11:47:43;;;;;;;;;;;14.70;76.80;;;;;;5028593;28;19909;-74
2023/09/16 11:50:18;;;;;;;;;;;14.80;77.00;;;;;;4994308;28;20277;-74
2023/09/16 11:52:44;;;;;;;;;;;14.80;76.80;;;;;;5041851;28;20007;-75
2023/09/16 11:55:10;;;;;;;;;;;14.80;76.70;;;;;;5047761;28;20003;-74
2023/09/16 11:57:35;;;;;;;;;;;14.80;76.80;;;;;;5030215;28;19909;-73
2023/09/16 12:00:01;;;;;;;;;;;14.80;76.80;;;;;;5044460;28;19923;-77
2023/09/16 12:02:27;;;;;;;;;;;14.80;76.90;;;;;;5034184;28;20676;-77
2023/09/16 12:04:53;;;;;;;;;;;14.90;76.90;;;;;;5041241;28;20387;-76
2023/09/16 12:07:19;;;;;;;;;;;15.00;76.90;;;;;;5028597;28;19913;-76
2023/09/16 12:09:46;;;;;;;;;;;15.00;76.90;;;;;;5011016;28;19921;-77
2023/09/16 12:12:12;;;;;;;;;;;15.00;76.70;;;;;;5010873;28;19921;-77
2023/09/16 12:14:37;;;;;;;;;;;14.90;76.60;;;;;;5051507;28;19917;-77
2023/09/16 12:17:03;;;;;;;;;;;14.90;76.60;;;;;;5053787;28;20027;-76
2023/09/16 12:19:29;;;;;;;;;;;14.90;76.70;;;;;;5058799;28;19920;-77
2023/09/16 12:21:55;;;;;;;;;;;14.90;76.80;;;;;;5050970;28;20050;-76
2023/09/16 12:24:21;;;;;;;;;;;14.90;76.80;;;;;;5037955;28;19967;-77
2023/09/16 12:26:47;;;;;;;;;;;15.00;76.90;;;;;;5034823;28;19909;-74
2023/09/16 12:29:12;;;;;;;;;;;15.00;76.80;;;;;;5063390;28;20007;-78
2023/09/16 12:31:38;;;;;;;;;;;15.00;76.80;;;;;;5058048;28;19935;-77
2023/09/16 12:34:04;;;;;;;;;;;15.00;76.80;;;;;;5019893;28;19913;-76
2023/09/16 12:36:30;;;;;;;;;;;15.10;77.00;;;;;;5057173;28;20000;-77
2023/09/16 12:38:56;;;;;;;;;;;15.20;77.00;;;;;;5059937;28;19920;-77
2023/09/16 12:41:22;;;;;;;;;;;15.20;76.90;;;;;;5020064;28;19982;-77
2023/09/16 12:43:48;;;;;;;;;;;15.30;76.80;;;;;;5028565;28;19909;-77
2023/09/16 12:46:14;;;;;;;;;;;15.30;76.90;;;;;;5057651;28;19924;-76
2023/09/16 12:48:43;;;;;;;;;;;15.30;76.80;;;;;;5039310;28;19923;-76
2023/09/16 12:51:10;;;;;;;;;;;15.40;76.90;;;;;;5057843;28;20008;-77
2023/09/16 12:53:35;;;;;;;;;;;15.50;76.90;;;;;;5026385;28;20387;-75
2023/09/16 12:56:02;;;;;;;;;;;15.50;76.90;;;;;;5039066;28;19912;-76
2023/09/16 12:58:28;;;;;;;;;;;15.50;76.70;;;;;;5066798;28;19912;-74
2023/09/16 13:00:54;;;;;;;;;;;15.50;76.70;;;;;;5065734;28;19927;-75
2023/09/16 13:03:21;;;;;;;;;;;15.50;76.80;;;;;;5040021;28;20015;-76
2023/09/16 13:05:54;;;;;;;;;;;15.50;76.70;;;;;;5060614;28;19915;-78
2023/09/16 13:08:21;;;;;;;;;;;15.60;76.80;;;;;;5043288;28;19913;-75
2023/09/16 13:10:48;;;;;;;;;;;15.50;76.80;;;;;;5035294;28;19913;-77
2023/09/16 13:13:14;;;;;;;;;;;15.50;76.90;;;;;;5046891;28;19990;-74
2023/09/16 13:15:43;;;;;;;;;;;15.60;76.70;;;;;;5056290;28;19908;-72
2023/09/16 13:18:09;;;;;;;;;;;15.50;76.70;;;;;;5056866;28;19958;-73
2023/09/16 13:20:40;;;;;;;;;;;15.50;76.70;;;;;;5061774;28;19951;-76
2023/09/16 13:23:06;;;;;;;;;;;15.50;76.90;;;;;;5029964;28;19970;-76
2023/09/16 13:25:38;;;;;;;;;;;15.50;76.80;;;;;;5037932;28;19919;-76
2023/09/16 13:28:11;;;;;;;;;;;15.40;76.70;;;;;;5057377;28;19908;-76
2023/09/16 13:30:37;;;;;;;;;;;15.40;76.70;;;;;;5041114;28;19973;-77
2023/09/16 13:33:05;;;;;;;;;;;15.30;76.70;;;;;;5024237;28;19913;-77
2023/09/16 13:35:35;;;;;;;;;;;15.30;76.80;;;;;;5043673;28;19958;-77
2023/09/16 13:38:01;;;;;;;;;;;15.20;76.80;;;;;;5041502;28;19908;-77
2023/09/16 13:40:27;;;;;;;;;;;15.20;77.00;;;;;;5058665;28;20332;-74
2023/09/16 13:42:53;;;;;;;;;;;15.30;76.90;;;;;;5040837;28;19995;-77
2023/09/16 13:45:18;;;;;;;;;;;15.30;76.70;;;;;;5042649;28;19917;-77
2023/09/16 13:48:03;;;;;;;;;;;15.40;76.70;;;;;;5040046;28;20361;-77
2023/09/16 13:50:29;;;;;;;;;;;15.40;76.70;;;;;;5058855;28;19978;-76
2023/09/16 13:52:54;;;;;;;;;;;15.40;76.70;;;;;;5044175;28;19913;-77
2023/09/16 13:55:20;;;;;;;;;;;15.40;76.70;;;;;;5025135;28;19951;-75
2023/09/16 13:57:45;;;;;;;;;;;15.40;76.80;;;;;;5032378;28;20004;-74
2023/09/16 14:00:13;;;;;;;;;;;15.40;76.90;;;;;;5040539;28;20013;-76
2023/09/16 14:02:39;;;;;;;;;;;15.40;76.80;;;;;;5055468;28;19913;-76
2023/09/16 14:05:05;;;;;;;;;;;15.40;76.70;;;;;;5064616;28;19909;-76
2023/09/16 14:07:30;;;;;;;;;;;15.40;76.90;;;;;;5052678;28;20284;-74
2023/09/16 14:09:56;;;;;;;;;;;15.50;77.00;;;;;;5053011;28;19912;-76